sensor_id;sensor_type;location;lat;lon;timestamp;temperature;humidity
30234;DHT22;17046;52.074;4.748;2022-12-05T00:00:56;3.50;99.90
30234;DHT22;17046;52.074;4.748;2022-12-05T00:03:22;3.50;99.90
30234;DHT22;17046;52.074;4.748;2022-12-05T00:05:48;3.50;99.90
30234;DHT22;17046;52.074;4.748;2022-12-05T00:08:14;3.60;99.90
30234;DHT22;17046;52.074;4.748;2022-12-05T00:10:39;3.60;99.90
30234;DHT22;17046;52.074;4.748;2022-12-05T00:13:06;3.60;99.90
30234;DHT22;17046;52.074;4.748;2022-12-05T00:15:36;3.60;99.90
30234;DHT22;17046;52.074;4.748;2022-12-05T00:18:01;3.60;99.90
30234;DHT22;17046;52.074;4.748;2022-12-05T00:20:27;3.60;99.90
30234;DHT22;17046;52.074;4.748;2022-12-05T00:22:52;3.60;99.90
30234;DHT22;17046;52.074;4.748;2022-12-05T00:25:18;3.70;99.90
30234;DHT22;17046;52.074;4.748;2022-12-05T00:27:43;3.70;99.90
30234;DHT22;17046;52.074;4.748;2022-12-05T00:30:09;3.70;99.90
30234;DHT22;17046;52.074;4.748;2022-12-05T00:32:35;3.70;99.90
30234;DHT22;17046;52.074;4.748;2022-12-05T00:35:00;3.70;99.90
30234;DHT22;17046;52.074;4.748;2022-12-05T00:37:26;3.70;99.90
30234;DHT22;17046;52.074;4.748;2022-12-05T00:39:51;3.70;99.90
30234;DHT22;17046;52.074;4.748;2022-12-05T00:42:17;3.70;99.90
30234;DHT22;17046;52.074;4.748;2022-12-05T00:44:42;3.70;99.90
30234;DHT22;17046;52.074;4.748;2022-12-05T00:47:08;3.70;99.90
30234;DHT22;17046;52.074;4.748;2022-12-05T00:49:33;3.80;99.90
30234;DHT22;17046;52.074;4.748;2022-12-05T00:51:59;3.80;99.90
30234;DHT22;17046;52.074;4.748;2022-12-05T00:54:24;3.80;99.90
30234;DHT22;17046;52.074;4.748;2022-12-05T00:56:50;3.80;99.90
30234;DHT22;17046;52.074;4.748;2022-12-05T00:59:20;3.80;99.90
30234;DHT22;17046;52.074;4.748;2022-12-05T01:01:48;3.80;99.90
30234;DHT22;17046;52.074;4.748;2022-12-05T01:04:16;3.80;99.90
30234;DHT22;17046;52.074;4.748;2022-12-05T01:06:43;3.80;99.90
30234;DHT22;17046;52.074;4.748;2022-12-05T01:09:12;3.80;99.90
30234;DHT22;17046;52.074;4.748;2022-12-05T01:11:38;3.80;99.90
30234;DHT22;17046;52.074;4.748;2022-12-05T01:14:04;3.80;99.90
30234;DHT22;17046;52.074;4.748;2022-12-05T01:16:32;3.80;99.90
30234;DHT22;17046;52.074;4.748;2022-12-05T01:18:59;3.80;99.90
30234;DHT22;17046;52.074;4.748;2022-12-05T01:21:26;3.80;99.90
30234;DHT22;17046;52.074;4.748;2022-12-05T01:23:51;3.80;99.90
30234;DHT22;17046;52.074;4.748;2022-12-05T01:26:18;3.80;99.90
30234;DHT22;17046;52.074;4.748;2022-12-05T01:28:45;3.80;99.90
30234;DHT22;17046;52.074;4.748;2022-12-05T01:31:23;3.80;99.90
30234;DHT22;17046;52.074;4.748;2022-12-05T01:33:49;3.80;99.90
30234;DHT22;17046;52.074;4.748;2022-12-05T01:36:16;3.80;99.90
30234;DHT22;17046;52.074;4.748;2022-12-05T01:38:43;3.80;99.90
30234;DHT22;17046;52.074;4.748;2022-12-05T01:41:16;3.90;99.90
30234;DHT22;17046;52.074;4.748;2022-12-05T01:44:03;3.90;99.90
30234;DHT22;17046;52.074;4.748;2022-12-05T01:46:32;3.90;99.90
30234;DHT22;17046;52.074;4.748;2022-12-05T01:51:30;3.80;99.90
30234;DHT22;17046;52.074;4.748;2022-12-05T01:53:57;3.90;99.90
30234;DHT22;17046;52.074;4.748;2022-12-05T01:56:23;3.90;99.90
30234;DHT22;17046;52.074;4.748;2022-12-05T01:58:50;3.90;99.90
30234;DHT22;17046;52.074;4.748;2022-12-05T02:01:17;3.90;99.90
30234;DHT22;17046;52.074;4.748;2022-12-05T02:03:44;3.90;99.90
30234;DHT22;17046;52.074;4.748;2022-12-05T02:06:12;3.90;99.90
30234;DHT22;17046;52.074;4.748;2022-12-05T02:08:38;3.90;99.90
30234;DHT22;17046;52.074;4.748;2022-12-05T02:11:05;3.90;99.90
30234;DHT22;17046;52.074;4.748;2022-12-05T02:13:57;3.90;99.90
30234;DHT22;17046;52.074;4.748;2022-12-05T02:30:39;3.90;99.90
30234;DHT22;17046;52.074;4.748;2022-12-05T02:33:11;3.80;99.90
30234;DHT22;17046;52.074;4.748;2022-12-05T02:35:50;3.90;99.90
30234;DHT22;17046;52.074;4.748;2022-12-05T02:38:29;3.90;99.90
30234;DHT22;17046;52.074;4.748;2022-12-05T02:41:26;4.20;99.90
30234;DHT22;17046;52.074;4.748;2022-12-05T02:44:02;3.90;99.90
30234;DHT22;17046;52.074;4.748;2022-12-05T02:46:31;3.90;99.90
30234;DHT22;17046;52.074;4.748;2022-12-05T02:48:59;3.90;99.90
30234;DHT22;17046;52.074;4.748;2022-12-05T02:51:30;3.90;99.90
30234;DHT22;17046;52.074;4.748;2022-12-05T02:53:59;4.00;99.90
30234;DHT22;17046;52.074;4.748;2022-12-05T02:56:26;4.00;99.90
30234;DHT22;17046;52.074;4.748;2022-12-05T02:58:54;4.00;99.90
30234;DHT22;17046;52.074;4.748;2022-12-05T03:01:23;4.00;99.90
30234;DHT22;17046;52.074;4.748;2022-12-05T03:03:49;4.00;99.90
30234;DHT22;17046;52.074;4.748;2022-12-05T03:06:20;4.00;99.90
30234;DHT22;17046;52.074;4.748;2022-12-05T03:09:08;4.00;99.90
30234;DHT22;17046;52.074;4.748;2022-12-05T03:11:40;4.00;99.90
30234;DHT22;17046;52.074;4.748;2022-12-05T03:14:12;4.00;99.90
30234;DHT22;17046;52.074;4.748;2022-12-05T03:16:48;4.00;99.90
30234;DHT22;17046;52.074;4.748;2022-12-05T03:19:20;4.00;99.90
30234;DHT22;17046;52.074;4.748;2022-12-05T03:21:54;4.00;99.90
30234;DHT22;17046;52.074;4.748;2022-12-05T03:24:21;4.00;99.90
30234;DHT22;17046;52.074;4.748;2022-12-05T03:30:10;4.00;99.90
30234;DHT22;17046;52.074;4.748;2022-12-05T03:43:54;4.10;99.90
30234;DHT22;17046;52.074;4.748;2022-12-05T03:49:11;4.10;99.90
30234;DHT22;17046;52.074;4.748;2022-12-05T03:51:42;4.10;99.90
30234;DHT22;17046;52.074;4.748;2022-12-05T03:54:18;4.10;99.90
30234;DHT22;17046;52.074;4.748;2022-12-05T03:56:52;4.10;99.90
30234;DHT22;17046;52.074;4.748;2022-12-05T03:59:31;4.10;99.90
30234;DHT22;17046;52.074;4.748;2022-12-05T04:02:04;4.10;99.90
30234;DHT22;17046;52.074;4.748;2022-12-05T04:04:34;4.10;99.90
30234;DHT22;17046;52.074;4.748;2022-12-05T04:07:05;4.10;99.90
30234;DHT22;17046;52.074;4.748;2022-12-05T04:10:05;4.10;99.90
30234;DHT22;17046;52.074;4.748;2022-12-05T04:12:33;4.10;99.90
30234;DHT22;17046;52.074;4.748;2022-12-05T04:15:04;4.20;99.90
30234;DHT22;17046;52.074;4.748;2022-12-05T04:17:45;4.20;99.90
30234;DHT22;17046;52.074;4.748;2022-12-05T04:20:16;4.20;99.90
30234;DHT22;17046;52.074;4.748;2022-12-05T04:23:02;4.30;99.90
30234;DHT22;17046;52.074;4.748;2022-12-05T04:31:16;4.20;99.90
30234;DHT22;17046;52.074;4.748;2022-12-05T04:37:05;4.30;99.90
30234;DHT22;17046;52.074;4.748;2022-12-05T04:39:39;4.30;99.90
30234;DHT22;17046;52.074;4.748;2022-12-05T04:42:14;4.30;99.90
30234;DHT22;17046;52.074;4.748;2022-12-05T04:44:58;4.30;99.90
30234;DHT22;17046;52.074;4.748;2022-12-05T04:47:30;4.30;99.90
30234;DHT22;17046;52.074;4.748;2022-12-05T04:49:57;4.30;99.90
30234;DHT22;17046;52.074;4.748;2022-12-05T04:52:24;4.30;99.90
30234;DHT22;17046;52.074;4.748;2022-12-05T05:00:04;4.40;99.90
30234;DHT22;17046;52.074;4.748;2022-12-05T05:02:37;4.40;99.90
30234;DHT22;17046;52.074;4.748;2022-12-05T05:05:09;4.40;99.90
30234;DHT22;17046;52.074;4.748;2022-12-05T05:07:46;4.40;99.90
30234;DHT22;17046;52.074;4.748;2022-12-05T05:10:15;4.40;99.90
30234;DHT22;17046;52.074;4.748;2022-12-05T05:12:42;4.40;99.90
30234;DHT22;17046;52.074;4.748;2022-12-05T05:15:07;4.40;99.90
30234;DHT22;17046;52.074;4.748;2022-12-05T05:17:33;4.40;99.90
30234;DHT22;17046;52.074;4.748;2022-12-05T05:19:58;4.50;99.90
30234;DHT22;17046;52.074;4.748;2022-12-05T05:22:51;4.50;99.90
30234;DHT22;17046;52.074;4.748;2022-12-05T05:25:18;4.50;99.90
30234;DHT22;17046;52.074;4.748;2022-12-05T05:27:50;4.50;99.90
30234;DHT22;17046;52.074;4.748;2022-12-05T05:30:18;4.60;99.90
30234;DHT22;17046;52.074;4.748;2022-12-05T05:32:44;4.50;99.90
30234;DHT22;17046;52.074;4.748;2022-12-05T05:35:10;4.60;99.90
30234;DHT22;17046;52.074;4.748;2022-12-05T05:37:36;4.60;99.90
30234;DHT22;17046;52.074;4.748;2022-12-05T05:40:03;4.50;99.90
30234;DHT22;17046;52.074;4.748;2022-12-05T05:42:28;4.60;99.90
30234;DHT22;17046;52.074;4.748;2022-12-05T05:44:54;4.60;99.90
30234;DHT22;17046;52.074;4.748;2022-12-05T05:47:19;4.60;99.90
30234;DHT22;17046;52.074;4.748;2022-12-05T05:49:45;4.60;99.90
30234;DHT22;17046;52.074;4.748;2022-12-05T05:52:10;4.60;99.90
30234;DHT22;17046;52.074;4.748;2022-12-05T05:54:36;4.60;99.90
30234;DHT22;17046;52.074;4.748;2022-12-05T05:57:01;4.60;99.90
30234;DHT22;17046;52.074;4.748;2022-12-05T05:59:27;4.60;99.90
30234;DHT22;17046;52.074;4.748;2022-12-05T06:01:53;4.70;99.90
30234;DHT22;17046;52.074;4.748;2022-12-05T06:04:18;4.70;99.90
30234;DHT22;17046;52.074;4.748;2022-12-05T06:06:44;4.70;99.90
30234;DHT22;17046;52.074;4.748;2022-12-05T06:09:09;4.70;99.90
30234;DHT22;17046;52.074;4.748;2022-12-05T06:11:35;4.70;99.90
30234;DHT22;17046;52.074;4.748;2022-12-05T06:14:00;4.70;99.90
30234;DHT22;17046;52.074;4.748;2022-12-05T06:16:27;4.80;99.90
30234;DHT22;17046;52.074;4.748;2022-12-05T06:18:52;4.80;99.90
30234;DHT22;17046;52.074;4.748;2022-12-05T06:21:18;4.80;99.90
30234;DHT22;17046;52.074;4.748;2022-12-05T06:23:44;4.90;99.90
30234;DHT22;17046;52.074;4.748;2022-12-05T06:26:12;4.90;99.90
30234;DHT22;17046;52.074;4.748;2022-12-05T06:28:38;4.90;99.90
30234;DHT22;17046;52.074;4.748;2022-12-05T06:31:09;4.90;99.90
30234;DHT22;17046;52.074;4.748;2022-12-05T06:33:35;4.90;99.90
30234;DHT22;17046;52.074;4.748;2022-12-05T06:36:04;4.90;99.90
30234;DHT22;17046;52.074;4.748;2022-12-05T06:38:30;5.00;99.90
30234;DHT22;17046;52.074;4.748;2022-12-05T06:40:56;5.00;99.90
30234;DHT22;17046;52.074;4.748;2022-12-05T06:43:21;5.00;99.90
30234;DHT22;17046;52.074;4.748;2022-12-05T06:45:47;5.00;99.90
30234;DHT22;17046;52.074;4.748;2022-12-05T06:48:12;5.00;99.90
30234;DHT22;17046;52.074;4.748;2022-12-05T06:50:38;5.10;99.90
30234;DHT22;17046;52.074;4.748;2022-12-05T06:53:03;5.10;99.90
30234;DHT22;17046;52.074;4.748;2022-12-05T06:55:29;5.10;99.90
30234;DHT22;17046;52.074;4.748;2022-12-05T06:57:55;5.20;99.90
30234;DHT22;17046;52.074;4.748;2022-12-05T07:00:21;5.10;99.90
30234;DHT22;17046;52.074;4.748;2022-12-05T07:03:05;5.20;99.90
30234;DHT22;17046;52.074;4.748;2022-12-05T07:05:32;5.20;99.90
30234;DHT22;17046;52.074;4.748;2022-12-05T07:07:57;5.20;99.90
30234;DHT22;17046;52.074;4.748;2022-12-05T07:10:23;5.20;99.90
30234;DHT22;17046;52.074;4.748;2022-12-05T07:12:48;5.20;99.90
30234;DHT22;17046;52.074;4.748;2022-12-05T07:15:14;5.20;99.90
30234;DHT22;17046;52.074;4.748;2022-12-05T07:17:39;5.20;99.90
30234;DHT22;17046;52.074;4.748;2022-12-05T07:20:06;5.20;99.90
30234;DHT22;17046;52.074;4.748;2022-12-05T07:22:34;5.30;99.90
30234;DHT22;17046;52.074;4.748;2022-12-05T07:25:00;5.30;99.90
30234;DHT22;17046;52.074;4.748;2022-12-05T07:27:26;5.30;99.90
30234;DHT22;17046;52.074;4.748;2022-12-05T07:29:51;5.30;99.90
30234;DHT22;17046;52.074;4.748;2022-12-05T07:32:17;5.30;99.90
30234;DHT22;17046;52.074;4.748;2022-12-05T07:34:42;5.30;99.90
30234;DHT22;17046;52.074;4.748;2022-12-05T07:37:08;5.30;99.90
30234;DHT22;17046;52.074;4.748;2022-12-05T07:39:34;5.30;99.90
30234;DHT22;17046;52.074;4.748;2022-12-05T07:41:59;5.30;99.90
30234;DHT22;17046;52.074;4.748;2022-12-05T07:44:25;5.40;99.90
30234;DHT22;17046;52.074;4.748;2022-12-05T07:46:50;5.40;99.90
30234;DHT22;17046;52.074;4.748;2022-12-05T07:49:16;5.40;99.90
30234;DHT22;17046;52.074;4.748;2022-12-05T07:51:41;5.40;99.90
30234;DHT22;17046;52.074;4.748;2022-12-05T07:54:07;5.40;99.90
30234;DHT22;17046;52.074;4.748;2022-12-05T07:56:33;5.40;99.90
30234;DHT22;17046;52.074;4.748;2022-12-05T07:58:58;5.40;99.90
30234;DHT22;17046;52.074;4.748;2022-12-05T08:01:26;5.40;99.90
30234;DHT22;17046;52.074;4.748;2022-12-05T08:03:53;5.40;99.90
30234;DHT22;17046;52.074;4.748;2022-12-05T08:06:21;5.50;99.90
30234;DHT22;17046;52.074;4.748;2022-12-05T08:08:48;5.50;99.90
30234;DHT22;17046;52.074;4.748;2022-12-05T08:11:18;5.50;99.90
30234;DHT22;17046;52.074;4.748;2022-12-05T08:13:45;5.50;99.90
30234;DHT22;17046;52.074;4.748;2022-12-05T08:16:13;5.50;99.90
30234;DHT22;17046;52.074;4.748;2022-12-05T08:18:39;5.50;99.90
30234;DHT22;17046;52.074;4.748;2022-12-05T08:21:09;5.50;99.90
30234;DHT22;17046;52.074;4.748;2022-12-05T08:23:36;5.50;99.90
30234;DHT22;17046;52.074;4.748;2022-12-05T08:26:11;5.50;99.90
30234;DHT22;17046;52.074;4.748;2022-12-05T08:28:37;5.60;99.90
30234;DHT22;17046;52.074;4.748;2022-12-05T08:31:08;5.60;99.90
30234;DHT22;17046;52.074;4.748;2022-12-05T08:33:34;5.60;99.90
30234;DHT22;17046;52.074;4.748;2022-12-05T08:36:01;5.60;99.90
30234;DHT22;17046;52.074;4.748;2022-12-05T08:38:27;5.60;99.90
30234;DHT22;17046;52.074;4.748;2022-12-05T08:40:53;5.70;99.90
30234;DHT22;17046;52.074;4.748;2022-12-05T08:43:18;5.70;99.90
30234;DHT22;17046;52.074;4.748;2022-12-05T08:45:50;5.70;99.90
30234;DHT22;17046;52.074;4.748;2022-12-05T08:48:16;5.70;99.90
30234;DHT22;17046;52.074;4.748;2022-12-05T08:50:41;5.70;99.90
30234;DHT22;17046;52.074;4.748;2022-12-05T08:53:07;5.70;99.90
30234;DHT22;17046;52.074;4.748;2022-12-05T08:55:34;5.70;99.90
30234;DHT22;17046;52.074;4.748;2022-12-05T08:57:59;5.70;99.90
30234;DHT22;17046;52.074;4.748;2022-12-05T09:00:25;5.70;99.90
30234;DHT22;17046;52.074;4.748;2022-12-05T09:02:50;5.70;99.90
30234;DHT22;17046;52.074;4.748;2022-12-05T09:05:16;5.80;99.90
30234;DHT22;17046;52.074;4.748;2022-12-05T09:07:42;5.80;99.90
30234;DHT22;17046;52.074;4.748;2022-12-05T09:10:08;5.80;99.90
30234;DHT22;17046;52.074;4.748;2022-12-05T09:12:37;5.80;99.90
30234;DHT22;17046;52.074;4.748;2022-12-05T09:15:05;5.80;99.90
30234;DHT22;17046;52.074;4.748;2022-12-05T09:17:31;5.80;99.90
30234;DHT22;17046;52.074;4.748;2022-12-05T09:19:57;5.80;99.90
30234;DHT22;17046;52.074;4.748;2022-12-05T09:22:22;5.80;99.90
30234;DHT22;17046;52.074;4.748;2022-12-05T09:24:48;5.80;99.90
30234;DHT22;17046;52.074;4.748;2022-12-05T09:27:14;5.80;99.90
30234;DHT22;17046;52.074;4.748;2022-12-05T09:29:39;5.90;99.90
30234;DHT22;17046;52.074;4.748;2022-12-05T09:32:05;5.90;99.90
30234;DHT22;17046;52.074;4.748;2022-12-05T09:34:31;5.90;99.90
30234;DHT22;17046;52.074;4.748;2022-12-05T09:36:57;5.90;99.90
30234;DHT22;17046;52.074;4.748;2022-12-05T09:39:23;5.90;99.90
30234;DHT22;17046;52.074;4.748;2022-12-05T09:47:43;6.00;99.90
30234;DHT22;17046;52.074;4.748;2022-12-05T09:52:53;6.00;99.90
30234;DHT22;17046;52.074;4.748;2022-12-05T09:55:22;6.00;99.90
30234;DHT22;17046;52.074;4.748;2022-12-05T09:57:51;6.10;99.90
30234;DHT22;17046;52.074;4.748;2022-12-05T10:00:18;6.10;99.90
30234;DHT22;17046;52.074;4.748;2022-12-05T10:05:28;6.00;99.90
30234;DHT22;17046;52.074;4.748;2022-12-05T10:08:16;6.00;99.90
30234;DHT22;17046;52.074;4.748;2022-12-05T10:11:01;6.10;99.90
30234;DHT22;17046;52.074;4.748;2022-12-05T10:16:44;6.10;99.90
30234;DHT22;17046;52.074;4.748;2022-12-05T10:19:27;6.00;99.90
30234;DHT22;17046;52.074;4.748;2022-12-05T10:22:14;6.10;99.90
30234;DHT22;17046;52.074;4.748;2022-12-05T10:24:43;6.10;99.90
30234;DHT22;17046;52.074;4.748;2022-12-05T10:27:19;6.20;99.90
30234;DHT22;17046;52.074;4.748;2022-12-05T10:30:11;6.20;99.90
30234;DHT22;17046;52.074;4.748;2022-12-05T10:35:18;6.10;99.90
30234;DHT22;17046;52.074;4.748;2022-12-05T10:38:05;6.10;99.90
30234;DHT22;17046;52.074;4.748;2022-12-05T10:40:40;6.10;99.90
30234;DHT22;17046;52.074;4.748;2022-12-05T10:43:07;6.10;99.90
30234;DHT22;17046;52.074;4.748;2022-12-05T10:45:42;6.10;99.90
30234;DHT22;17046;52.074;4.748;2022-12-05T10:48:11;6.10;99.90
30234;DHT22;17046;52.074;4.748;2022-12-05T10:50:38;6.10;99.90
30234;DHT22;17046;52.074;4.748;2022-12-05T10:53:05;6.10;99.90
30234;DHT22;17046;52.074;4.748;2022-12-05T10:55:43;6.00;99.90
30234;DHT22;17046;52.074;4.748;2022-12-05T10:58:17;6.00;99.90
30234;DHT22;17046;52.074;4.748;2022-12-05T11:00:51;6.10;99.90
30234;DHT22;17046;52.074;4.748;2022-12-05T11:03:30;6.10;99.90
30234;DHT22;17046;52.074;4.748;2022-12-05T11:06:00;6.00;99.90
30234;DHT22;17046;52.074;4.748;2022-12-05T11:08:28;6.00;99.90
30234;DHT22;17046;52.074;4.748;2022-12-05T11:11:05;6.00;99.90
30234;DHT22;17046;52.074;4.748;2022-12-05T11:13:32;6.00;99.90
30234;DHT22;17046;52.074;4.748;2022-12-05T11:15:58;6.00;99.90
30234;DHT22;17046;52.074;4.748;2022-12-05T11:18:29;6.00;99.90
30234;DHT22;17046;52.074;4.748;2022-12-05T11:21:07;6.00;99.90
30234;DHT22;17046;52.074;4.748;2022-12-05T11:23:33;6.00;99.90
30234;DHT22;17046;52.074;4.748;2022-12-05T11:25:58;6.00;99.90
30234;DHT22;17046;52.074;4.748;2022-12-05T11:28:34;6.00;99.90
30234;DHT22;17046;52.074;4.748;2022-12-05T11:33:40;6.10;99.90
30234;DHT22;17046;52.074;4.748;2022-12-05T11:36:18;6.10;99.90
30234;DHT22;17046;52.074;4.748;2022-12-05T11:38:44;6.00;99.90
30234;DHT22;17046;52.074;4.748;2022-12-05T11:50:03;6.40;99.90
30234;DHT22;17046;52.074;4.748;2022-12-05T11:58:30;6.60;99.90
30234;DHT22;17046;52.074;4.748;2022-12-05T12:10:01;6.80;99.90
30234;DHT22;17046;52.074;4.748;2022-12-05T12:15:41;6.80;99.90
30234;DHT22;17046;52.074;4.748;2022-12-05T12:31:53;6.50;99.90
30234;DHT22;17046;52.074;4.748;2022-12-05T12:37:52;6.50;99.90
30234;DHT22;17046;52.074;4.748;2022-12-05T12:40:42;6.40;99.90
30234;DHT22;17046;52.074;4.748;2022-12-05T12:46:14;6.40;99.90
30234;DHT22;17046;52.074;4.748;2022-12-05T12:51:21;6.50;99.90
30234;DHT22;17046;52.074;4.748;2022-12-05T12:57:01;6.50;99.90
30234;DHT22;17046;52.074;4.748;2022-12-05T13:02:58;6.50;99.90
30234;DHT22;17046;52.074;4.748;2022-12-05T13:05:47;6.50;99.90
30234;DHT22;17046;52.074;4.748;2022-12-05T13:08:29;6.50;99.90
30234;DHT22;17046;52.074;4.748;2022-12-05T13:10:59;6.50;99.90
30234;DHT22;17046;52.074;4.748;2022-12-05T13:13:33;6.50;99.90
30234;DHT22;17046;52.074;4.748;2022-12-05T13:16:03;6.50;99.90
30234;DHT22;17046;52.074;4.748;2022-12-05T13:18:30;6.40;99.90
30234;DHT22;17046;52.074;4.748;2022-12-05T13:20:58;6.50;99.90
30234;DHT22;17046;52.074;4.748;2022-12-05T13:23:27;6.50;99.90
30234;DHT22;17046;52.074;4.748;2022-12-05T13:25:55;6.50;99.90
30234;DHT22;17046;52.074;4.748;2022-12-05T13:28:28;6.50;99.90
30234;DHT22;17046;52.074;4.748;2022-12-05T13:30:55;6.50;99.90
30234;DHT22;17046;52.074;4.748;2022-12-05T13:33:42;6.60;99.90
30234;DHT22;17046;52.074;4.748;2022-12-05T13:36:19;6.60;99.90
30234;DHT22;17046;52.074;4.748;2022-12-05T13:39:06;6.50;99.90
30234;DHT22;17046;52.074;4.748;2022-12-05T13:42:00;6.50;99.90
30234;DHT22;17046;52.074;4.748;2022-12-05T13:44:44;6.50;99.90
30234;DHT22;17046;52.074;4.748;2022-12-05T13:47:29;6.40;99.90
30234;DHT22;17046;52.074;4.748;2022-12-05T13:50:11;6.50;99.90
30234;DHT22;17046;52.074;4.748;2022-12-05T13:53:00;6.50;99.90
30234;DHT22;17046;52.074;4.748;2022-12-05T13:55:36;6.50;99.90
30234;DHT22;17046;52.074;4.748;2022-12-05T14:00:43;6.40;99.90
30234;DHT22;17046;52.074;4.748;2022-12-05T14:03:52;6.40;99.90
30234;DHT22;17046;52.074;4.748;2022-12-05T14:06:02;6.40;99.90
30234;DHT22;17046;52.074;4.748;2022-12-05T14:15:49;6.30;99.90
30234;DHT22;17046;52.074;4.748;2022-12-05T14:26:39;6.30;99.90
30234;DHT22;17046;52.074;4.748;2022-12-05T14:29:37;6.30;99.90
30234;DHT22;17046;52.074;4.748;2022-12-05T14:32:18;6.30;99.90
30234;DHT22;17046;52.074;4.748;2022-12-05T14:39:52;6.30;99.90
30234;DHT22;17046;52.074;4.748;2022-12-05T14:42:24;6.20;99.90
30234;DHT22;17046;52.074;4.748;2022-12-05T14:44:55;6.30;99.90
30234;DHT22;17046;52.074;4.748;2022-12-05T14:47:26;6.20;99.90
30234;DHT22;17046;52.074;4.748;2022-12-05T14:52:27;6.20;99.90
30234;DHT22;17046;52.074;4.748;2022-12-05T14:54:59;6.20;99.90
30234;DHT22;17046;52.074;4.748;2022-12-05T14:57:26;6.20;99.90
30234;DHT22;17046;52.074;4.748;2022-12-05T15:00:00;6.10;99.90
30234;DHT22;17046;52.074;4.748;2022-12-05T15:02:30;6.10;99.90
30234;DHT22;17046;52.074;4.748;2022-12-05T15:05:13;6.10;99.90
30234;DHT22;17046;52.074;4.748;2022-12-05T15:07:42;6.10;99.90
30234;DHT22;17046;52.074;4.748;2022-12-05T15:10:32;6.00;99.90
30234;DHT22;17046;52.074;4.748;2022-12-05T15:13:08;6.00;99.90
30234;DHT22;17046;52.074;4.748;2022-12-05T15:31:30;5.90;99.90
30234;DHT22;17046;52.074;4.748;2022-12-05T15:34:00;5.90;99.90
30234;DHT22;17046;52.074;4.748;2022-12-05T15:36:34;5.90;99.90
30234;DHT22;17046;52.074;4.748;2022-12-05T15:39:04;6.00;99.90
30234;DHT22;17046;52.074;4.748;2022-12-05T15:41:30;5.90;99.90
30234;DHT22;17046;52.074;4.748;2022-12-05T15:43:57;5.90;99.90
30234;DHT22;17046;52.074;4.748;2022-12-05T15:46:24;5.90;99.90
30234;DHT22;17046;52.074;4.748;2022-12-05T15:48:53;6.90;99.90
30234;DHT22;17046;52.074;4.748;2022-12-05T15:51:23;5.90;99.90
30234;DHT22;17046;52.074;4.748;2022-12-05T15:54:06;5.90;99.90
30234;DHT22;17046;52.074;4.748;2022-12-05T15:56:39;5.90;99.90
30234;DHT22;17046;52.074;4.748;2022-12-05T15:59:20;6.10;99.90
30234;DHT22;17046;52.074;4.748;2022-12-05T16:01:50;5.80;99.90
30234;DHT22;17046;52.074;4.748;2022-12-05T16:04:44;5.80;99.90
30234;DHT22;17046;52.074;4.748;2022-12-05T16:07:12;5.80;99.90
30234;DHT22;17046;52.074;4.748;2022-12-05T16:09:40;5.90;99.90
30234;DHT22;17046;52.074;4.748;2022-12-05T16:14:57;5.90;99.90
30234;DHT22;17046;52.074;4.748;2022-12-05T16:17:25;5.90;99.90
30234;DHT22;17046;52.074;4.748;2022-12-05T16:19:52;5.90;99.90
30234;DHT22;17046;52.074;4.748;2022-12-05T16:22:23;5.90;99.90
30234;DHT22;17046;52.074;4.748;2022-12-05T16:24:55;5.90;99.90
30234;DHT22;17046;52.074;4.748;2022-12-05T16:27:25;5.90;99.90
30234;DHT22;17046;52.074;4.748;2022-12-05T16:30:20;6.00;99.90
30234;DHT22;17046;52.074;4.748;2022-12-05T16:32:48;6.00;99.90
30234;DHT22;17046;52.074;4.748;2022-12-05T16:35:41;6.00;99.90
30234;DHT22;17046;52.074;4.748;2022-12-05T16:40:48;6.10;99.90
30234;DHT22;17046;52.074;4.748;2022-12-05T16:45:58;6.10;99.90
30234;DHT22;17046;52.074;4.748;2022-12-05T16:48:27;6.10;99.90
30234;DHT22;17046;52.074;4.748;2022-12-05T16:53:39;6.10;99.90
30234;DHT22;17046;52.074;4.748;2022-12-05T16:56:05;6.00;99.90
30234;DHT22;17046;52.074;4.748;2022-12-05T16:58:33;6.00;99.90
30234;DHT22;17046;52.074;4.748;2022-12-05T17:01:04;6.00;99.90
30234;DHT22;17046;52.074;4.748;2022-12-05T17:03:31;6.10;99.90
30234;DHT22;17046;52.074;4.748;2022-12-05T17:05:57;6.10;99.90
30234;DHT22;17046;52.074;4.748;2022-12-05T17:08:24;6.00;99.90
30234;DHT22;17046;52.074;4.748;2022-12-05T17:10:49;6.10;99.90
30234;DHT22;17046;52.074;4.748;2022-12-05T17:13:17;6.10;99.90
30234;DHT22;17046;52.074;4.748;2022-12-05T17:15:43;6.10;99.90
30234;DHT22;17046;52.074;4.748;2022-12-05T17:18:18;6.10;99.90
30234;DHT22;17046;52.074;4.748;2022-12-05T17:20:54;6.10;99.90
30234;DHT22;17046;52.074;4.748;2022-12-05T17:23:21;6.10;99.90
30234;DHT22;17046;52.074;4.748;2022-12-05T17:25:55;6.10;99.90
30234;DHT22;17046;52.074;4.748;2022-12-05T17:28:21;6.10;99.90
30234;DHT22;17046;52.074;4.748;2022-12-05T17:30:47;6.10;99.90
30234;DHT22;17046;52.074;4.748;2022-12-05T17:33:14;6.10;99.90
30234;DHT22;17046;52.074;4.748;2022-12-05T17:35:40;6.10;99.90
30234;DHT22;17046;52.074;4.748;2022-12-05T17:38:07;6.10;99.90
30234;DHT22;17046;52.074;4.748;2022-12-05T17:40:32;6.10;99.90
30234;DHT22;17046;52.074;4.748;2022-12-05T17:42:59;6.10;99.90
30234;DHT22;17046;52.074;4.748;2022-12-05T17:45:24;6.10;99.90
30234;DHT22;17046;52.074;4.748;2022-12-05T17:47:50;6.10;99.90
30234;DHT22;17046;52.074;4.748;2022-12-05T17:50:19;6.10;99.90
30234;DHT22;17046;52.074;4.748;2022-12-05T17:52:46;6.10;99.90
30234;DHT22;17046;52.074;4.748;2022-12-05T17:55:18;6.10;99.90
30234;DHT22;17046;52.074;4.748;2022-12-05T17:57:44;6.10;99.90
30234;DHT22;17046;52.074;4.748;2022-12-05T18:00:11;6.10;99.90
30234;DHT22;17046;52.074;4.748;2022-12-05T18:02:36;6.10;99.90
30234;DHT22;17046;52.074;4.748;2022-12-05T18:05:03;6.10;99.90
30234;DHT22;17046;52.074;4.748;2022-12-05T18:07:28;6.20;99.90
30234;DHT22;17046;52.074;4.748;2022-12-05T18:09:54;6.20;99.90
30234;DHT22;17046;52.074;4.748;2022-12-05T18:12:20;6.20;99.90
30234;DHT22;17046;52.074;4.748;2022-12-05T18:14:45;6.20;99.90
30234;DHT22;17046;52.074;4.748;2022-12-05T18:17:11;6.20;99.90
30234;DHT22;17046;52.074;4.748;2022-12-05T18:19:37;6.20;99.90
30234;DHT22;17046;52.074;4.748;2022-12-05T18:22:02;6.20;99.90
30234;DHT22;17046;52.074;4.748;2022-12-05T18:24:28;6.20;99.90
30234;DHT22;17046;52.074;4.748;2022-12-05T18:26:54;6.20;99.90
30234;DHT22;17046;52.074;4.748;2022-12-05T18:29:21;6.30;99.90
30234;DHT22;17046;52.074;4.748;2022-12-05T18:31:47;6.30;99.90
30234;DHT22;17046;52.074;4.748;2022-12-05T18:34:13;6.30;99.90
30234;DHT22;17046;52.074;4.748;2022-12-05T18:36:38;6.30;99.90
30234;DHT22;17046;52.074;4.748;2022-12-05T18:39:04;6.30;99.90
30234;DHT22;17046;52.074;4.748;2022-12-05T18:41:29;6.30;99.90
30234;DHT22;17046;52.074;4.748;2022-12-05T18:43:56;6.30;99.90
30234;DHT22;17046;52.074;4.748;2022-12-05T18:46:21;6.30;99.90
30234;DHT22;17046;52.074;4.748;2022-12-05T18:48:47;6.20;99.90
30234;DHT22;17046;52.074;4.748;2022-12-05T18:51:21;6.20;99.90
30234;DHT22;17046;52.074;4.748;2022-12-05T18:53:48;6.30;99.90
30234;DHT22;17046;52.074;4.748;2022-12-05T18:56:22;6.20;99.90
30234;DHT22;17046;52.074;4.748;2022-12-05T18:59:05;6.30;99.90